sensor_id;sensor_type;location;lat;lon;timestamp;P1;P2;P0
61804;PMS7003;47725;47.912;7.356;2023-07-31T00:01:05;0.00;0.00;
61804;PMS7003;47725;47.912;7.356;2023-07-31T00:05:05;0.00;0.00;
61804;PMS7003;47725;47.912;7.356;2023-07-31T00:09:05;0.00;0.00;
61804;PMS7003;47725;47.912;7.356;2023-07-31T00:13:05;0.00;0.00;
61804;PMS7003;47725;47.912;7.356;2023-07-31T00:17:05;1.97;0.00;
61804;PMS7003;47725;47.912;7.356;2023-07-31T00:21:05;1.97;0.00;
61804;PMS7003;47725;47.912;7.356;2023-07-31T00:25:05;1.97;0.00;
61804;PMS7003;47725;47.912;7.356;2023-07-31T00:29:05;2.95;1.97;
61804;PMS7003;47725;47.912;7.356;2023-07-31T00:33:05;2.95;1.97;
61804;PMS7003;47725;47.912;7.356;2023-07-31T00:37:05;0.00;0.00;
61804;PMS7003;47725;47.912;7.356;2023-07-31T00:41:05;0.00;0.00;
61804;PMS7003;47725;47.912;7.356;2023-07-31T00:45:05;0.00;0.00;
61804;PMS7003;47725;47.912;7.356;2023-07-31T00:49:05;0.98;0.98;
61804;PMS7003;47725;47.912;7.356;2023-07-31T00:53:05;0.98;0.98;
61804;PMS7003;47725;47.912;7.356;2023-07-31T00:57:05;0.98;0.98;
61804;PMS7003;47725;47.912;7.356;2023-07-31T01:01:05;0.98;0.98;
61804;PMS7003;47725;47.912;7.356;2023-07-31T01:05:05;0.98;0.98;
61804;PMS7003;47725;47.912;7.356;2023-07-31T01:09:09;0.00;0.00;
61804;PMS7003;47725;47.912;7.356;2023-07-31T01:13:05;0.00;0.00;
61804;PMS7003;47725;47.912;7.356;2023-07-31T01:17:05;0.98;0.98;
61804;PMS7003;47725;47.912;7.356;2023-07-31T01:25:16;0.98;0.98;
61804;PMS7003;47725;47.912;7.356;2023-07-31T01:33:05;0.98;0.98;
61804;PMS7003;47725;47.912;7.356;2023-07-31T01:37:05;0.98;0.98;
61804;PMS7003;47725;47.912;7.356;2023-07-31T01:41:05;0.98;0.98;
61804;PMS7003;47725;47.912;7.356;2023-07-31T01:45:06;0.98;0.98;
61804;PMS7003;47725;47.912;7.356;2023-07-31T01:49:05;0.98;0.98;
61804;PMS7003;47725;47.912;7.356;2023-07-31T01:53:05;0.98;0.98;
61804;PMS7003;47725;47.912;7.356;2023-07-31T01:57:05;0.00;0.00;
61804;PMS7003;47725;47.912;7.356;2023-07-31T02:01:05;0.00;0.00;
61804;PMS7003;47725;47.912;7.356;2023-07-31T02:05:05;0.00;0.00;
61804;PMS7003;47725;47.912;7.356;2023-07-31T02:09:05;0.97;0.97;
61804;PMS7003;47725;47.912;7.356;2023-07-31T02:13:05;0.97;0.97;
61804;PMS7003;47725;47.912;7.356;2023-07-31T02:17:05;1.95;0.97;
61804;PMS7003;47725;47.912;7.356;2023-07-31T02:21:05;1.95;0.97;
61804;PMS7003;47725;47.912;7.356;2023-07-31T02:25:05;1.95;0.97;
61804;PMS7003;47725;47.912;7.356;2023-07-31T02:29:05;0.00;0.00;
61804;PMS7003;47725;47.912;7.356;2023-07-31T02:33:05;0.00;0.00;
61804;PMS7003;47725;47.912;7.356;2023-07-31T02:37:05;0.00;0.00;
61804;PMS7003;47725;47.912;7.356;2023-07-31T02:41:05;0.00;0.00;
61804;PMS7003;47725;47.912;7.356;2023-07-31T02:45:05;0.00;0.00;
61804;PMS7003;47725;47.912;7.356;2023-07-31T02:49:05;0.00;0.00;
61804;PMS7003;47725;47.912;7.356;2023-07-31T02:53:05;0.00;0.00;
61804;PMS7003;47725;47.912;7.356;2023-07-31T02:57:05;0.00;0.00;
61804;PMS7003;47725;47.912;7.356;2023-07-31T03:01:05;0.00;0.00;
61804;PMS7003;47725;47.912;7.356;2023-07-31T03:05:05;0.00;0.00;
61804;PMS7003;47725;47.912;7.356;2023-07-31T03:09:05;0.00;0.00;
61804;PMS7003;47725;47.912;7.356;2023-07-31T03:13:05;0.00;0.00;
61804;PMS7003;47725;47.912;7.356;2023-07-31T03:17:05;0.00;0.00;
61804;PMS7003;47725;47.912;7.356;2023-07-31T03:21:05;0.00;0.00;
61804;PMS7003;47725;47.912;7.356;2023-07-31T03:25:05;0.00;0.00;
61804;PMS7003;47725;47.912;7.356;2023-07-31T03:29:05;0.00;0.00;
61804;PMS7003;47725;47.912;7.356;2023-07-31T03:33:05;0.00;0.00;
61804;PMS7003;47725;47.912;7.356;2023-07-31T03:37:05;1.94;0.97;
61804;PMS7003;47725;47.912;7.356;2023-07-31T03:41:05;1.94;0.97;
61804;PMS7003;47725;47.912;7.356;2023-07-31T03:45:06;1.94;0.97;
61804;PMS7003;47725;47.912;7.356;2023-07-31T03:49:05;0.96;0.96;
61804;PMS7003;47725;47.912;7.356;2023-07-31T03:53:05;0.96;0.96;
61804;PMS7003;47725;47.912;7.356;2023-07-31T03:57:05;2.89;0.96;
61804;PMS7003;47725;47.912;7.356;2023-07-31T04:01:05;2.89;0.96;
61804;PMS7003;47725;47.912;7.356;2023-07-31T04:05:05;2.89;0.96;
61804;PMS7003;47725;47.912;7.356;2023-07-31T04:09:05;0.96;0.96;
61804;PMS7003;47725;47.912;7.356;2023-07-31T04:13:05;0.96;0.96;
61804;PMS7003;47725;47.912;7.356;2023-07-31T04:17:05;0.96;0.96;
61804;PMS7003;47725;47.912;7.356;2023-07-31T04:21:05;0.96;0.96;
61804;PMS7003;47725;47.912;7.356;2023-07-31T04:25:05;0.96;0.96;
61804;PMS7003;47725;47.912;7.356;2023-07-31T04:29:05;0.00;0.00;
61804;PMS7003;47725;47.912;7.356;2023-07-31T04:33:05;0.00;0.00;
61804;PMS7003;47725;47.912;7.356;2023-07-31T04:37:05;0.96;0.96;
61804;PMS7003;47725;47.912;7.356;2023-07-31T04:41:05;0.96;0.96;
61804;PMS7003;47725;47.912;7.356;2023-07-31T04:45:05;0.96;0.96;
61804;PMS7003;47725;47.912;7.356;2023-07-31T04:49:05;1.91;1.91;
61804;PMS7003;47725;47.912;7.356;2023-07-31T04:53:05;1.91;1.91;
61804;PMS7003;47725;47.912;7.356;2023-07-31T04:57:05;1.92;1.92;
61804;PMS7003;47725;47.912;7.356;2023-07-31T05:01:05;1.92;1.92;
61804;PMS7003;47725;47.912;7.356;2023-07-31T05:05:05;1.92;1.92;
61804;PMS7003;47725;47.912;7.356;2023-07-31T05:09:05;0.96;0.96;
61804;PMS7003;47725;47.912;7.356;2023-07-31T05:13:05;0.96;0.96;
61804;PMS7003;47725;47.912;7.356;2023-07-31T05:17:05;1.92;1.92;
61804;PMS7003;47725;47.912;7.356;2023-07-31T05:21:05;1.92;1.92;
61804;PMS7003;47725;47.912;7.356;2023-07-31T05:25:05;1.92;1.92;
61804;PMS7003;47725;47.912;7.356;2023-07-31T05:29:05;1.91;1.91;
61804;PMS7003;47725;47.912;7.356;2023-07-31T05:33:05;1.91;1.91;
61804;PMS7003;47725;47.912;7.356;2023-07-31T05:37:05;1.91;1.91;
61804;PMS7003;47725;47.912;7.356;2023-07-31T05:41:05;1.91;1.91;
61804;PMS7003;47725;47.912;7.356;2023-07-31T05:45:06;1.91;1.91;
61804;PMS7003;47725;47.912;7.356;2023-07-31T05:49:05;1.92;0.96;
61804;PMS7003;47725;47.912;7.356;2023-07-31T05:53:05;1.92;0.96;
61804;PMS7003;47725;47.912;7.356;2023-07-31T05:57:05;0.00;0.00;
61804;PMS7003;47725;47.912;7.356;2023-07-31T06:01:05;0.00;0.00;
61804;PMS7003;47725;47.912;7.356;2023-07-31T06:05:05;0.00;0.00;
61804;PMS7003;47725;47.912;7.356;2023-07-31T06:09:05;0.96;0.96;
61804;PMS7003;47725;47.912;7.356;2023-07-31T06:13:05;0.96;0.96;
61804;PMS7003;47725;47.912;7.356;2023-07-31T06:17:05;0.00;0.00;
61804;PMS7003;47725;47.912;7.356;2023-07-31T06:21:05;0.00;0.00;
61804;PMS7003;47725;47.912;7.356;2023-07-31T06:25:05;0.00;0.00;
61804;PMS7003;47725;47.912;7.356;2023-07-31T06:29:05;0.00;0.00;
61804;PMS7003;47725;47.912;7.356;2023-07-31T06:33:05;0.00;0.00;
61804;PMS7003;47725;47.912;7.356;2023-07-31T06:37:05;0.97;0.97;
61804;PMS7003;47725;47.912;7.356;2023-07-31T06:41:05;0.97;0.97;
61804;PMS7003;47725;47.912;7.356;2023-07-31T06:45:05;0.97;0.97;
61804;PMS7003;47725;47.912;7.356;2023-07-31T06:49:05;0.97;0.00;
61804;PMS7003;47725;47.912;7.356;2023-07-31T06:53:05;0.97;0.00;
61804;PMS7003;47725;47.912;7.356;2023-07-31T06:57:05;1.94;0.00;
61804;PMS7003;47725;47.912;7.356;2023-07-31T07:01:05;1.94;0.00;
61804;PMS7003;47725;47.912;7.356;2023-07-31T07:05:05;1.94;0.00;
61804;PMS7003;47725;47.912;7.356;2023-07-31T07:09:05;0.97;0.97;
61804;PMS7003;47725;47.912;7.356;2023-07-31T07:13:05;0.97;0.97;
61804;PMS7003;47725;47.912;7.356;2023-07-31T07:17:05;0.97;0.97;
61804;PMS7003;47725;47.912;7.356;2023-07-31T07:21:05;0.97;0.97;
61804;PMS7003;47725;47.912;7.356;2023-07-31T07:25:05;0.97;0.97;
61804;PMS7003;47725;47.912;7.356;2023-07-31T07:29:05;2.92;0.00;
61804;PMS7003;47725;47.912;7.356;2023-07-31T07:33:05;2.92;0.00;
61804;PMS7003;47725;47.912;7.356;2023-07-31T07:37:05;2.93;0.98;
61804;PMS7003;47725;47.912;7.356;2023-07-31T07:41:05;2.93;0.98;
61804;PMS7003;47725;47.912;7.356;2023-07-31T07:45:05;2.93;0.98;
61804;PMS7003;47725;47.912;7.356;2023-07-31T07:49:13;0.98;0.98;
61804;PMS7003;47725;47.912;7.356;2023-07-31T07:53:05;0.98;0.98;
61804;PMS7003;47725;47.912;7.356;2023-07-31T07:57:05;0.98;0.00;
61804;PMS7003;47725;47.912;7.356;2023-07-31T08:01:05;0.98;0.00;
61804;PMS7003;47725;47.912;7.356;2023-07-31T08:05:05;0.98;0.00;
61804;PMS7003;47725;47.912;7.356;2023-07-31T08:09:05;0.00;0.00;
61804;PMS7003;47725;47.912;7.356;2023-07-31T08:13:05;0.00;0.00;
61804;PMS7003;47725;47.912;7.356;2023-07-31T08:17:05;0.00;0.00;
61804;PMS7003;47725;47.912;7.356;2023-07-31T08:21:05;0.00;0.00;
61804;PMS7003;47725;47.912;7.356;2023-07-31T08:25:05;0.00;0.00;
61804;PMS7003;47725;47.912;7.356;2023-07-31T08:29:05;0.00;0.00;
61804;PMS7003;47725;47.912;7.356;2023-07-31T08:33:05;0.00;0.00;
61804;PMS7003;47725;47.912;7.356;2023-07-31T08:37:05;1.97;0.98;
61804;PMS7003;47725;47.912;7.356;2023-07-31T08:41:04;1.97;0.98;
61804;PMS7003;47725;47.912;7.356;2023-07-31T08:45:05;1.97;0.98;
61804;PMS7003;47725;47.912;7.356;2023-07-31T08:49:05;1.97;1.97;
61804;PMS7003;47725;47.912;7.356;2023-07-31T08:53:04;1.97;1.97;
61804;PMS7003;47725;47.912;7.356;2023-07-31T08:57:05;0.00;0.00;
61804;PMS7003;47725;47.912;7.356;2023-07-31T09:01:04;0.00;0.00;
61804;PMS7003;47725;47.912;7.356;2023-07-31T09:05:07;0.00;0.00;
61804;PMS7003;47725;47.912;7.356;2023-07-31T09:09:04;0.99;0.99;
61804;PMS7003;47725;47.912;7.356;2023-07-31T09:13:04;0.99;0.99;
61804;PMS7003;47725;47.912;7.356;2023-07-31T09:17:05;0.99;0.99;
61804;PMS7003;47725;47.912;7.356;2023-07-31T09:21:05;0.99;0.99;
61804;PMS7003;47725;47.912;7.356;2023-07-31T09:25:17;0.99;0.99;
61804;PMS7003;47725;47.912;7.356;2023-07-31T09:29:05;0.99;0.99;
61804;PMS7003;47725;47.912;7.356;2023-07-31T09:33:05;0.99;0.99;
61804;PMS7003;47725;47.912;7.356;2023-07-31T09:37:05;1.98;1.98;
61804;PMS7003;47725;47.912;7.356;2023-07-31T09:41:04;1.98;1.98;
61804;PMS7003;47725;47.912;7.356;2023-07-31T09:45:07;1.98;1.98;
61804;PMS7003;47725;47.912;7.356;2023-07-31T09:49:05;0.99;0.00;
61804;PMS7003;47725;47.912;7.356;2023-07-31T09:53:07;0.99;0.00;
61804;PMS7003;47725;47.912;7.356;2023-07-31T09:57:05;0.99;0.00;
61804;PMS7003;47725;47.912;7.356;2023-07-31T10:01:04;0.99;0.00;
61804;PMS7003;47725;47.912;7.356;2023-07-31T10:05:05;0.99;0.00;
61804;PMS7003;47725;47.912;7.356;2023-07-31T10:09:09;1.00;1.00;
61804;PMS7003;47725;47.912;7.356;2023-07-31T10:13:04;1.00;1.00;
61804;PMS7003;47725;47.912;7.356;2023-07-31T10:17:05;0.99;0.99;
61804;PMS7003;47725;47.912;7.356;2023-07-31T10:21:04;0.99;0.99;
61804;PMS7003;47725;47.912;7.356;2023-07-31T10:25:06;0.99;0.99;
61804;PMS7003;47725;47.912;7.356;2023-07-31T10:29:05;0.99;0.99;
61804;PMS7003;47725;47.912;7.356;2023-07-31T10:33:04;0.99;0.99;
61804;PMS7003;47725;47.912;7.356;2023-07-31T10:37:22;0.00;0.00;
61804;PMS7003;47725;47.912;7.356;2023-07-31T10:41:08;0.00;0.00;
61804;PMS7003;47725;47.912;7.356;2023-07-31T10:45:05;0.00;0.00;
61804;PMS7003;47725;47.912;7.356;2023-07-31T10:49:04;0.00;0.00;
61804;PMS7003;47725;47.912;7.356;2023-07-31T10:53:04;0.00;0.00;
61804;PMS7003;47725;47.912;7.356;2023-07-31T10:57:18;0.99;0.99;
61804;PMS7003;47725;47.912;7.356;2023-07-31T11:01:05;0.99;0.99;
61804;PMS7003;47725;47.912;7.356;2023-07-31T11:05:08;0.99;0.99;
61804;PMS7003;47725;47.912;7.356;2023-07-31T11:09:04;0.99;0.99;
61804;PMS7003;47725;47.912;7.356;2023-07-31T11:13:04;0.99;0.99;
61804;PMS7003;47725;47.912;7.356;2023-07-31T11:17:07;0.99;0.99;
61804;PMS7003;47725;47.912;7.356;2023-07-31T11:21:04;0.99;0.99;
61804;PMS7003;47725;47.912;7.356;2023-07-31T11:25:05;0.99;0.99;
61804;PMS7003;47725;47.912;7.356;2023-07-31T11:29:10;1.99;1.00;
61804;PMS7003;47725;47.912;7.356;2023-07-31T11:33:05;1.99;1.00;
61804;PMS7003;47725;47.912;7.356;2023-07-31T11:37:05;0.00;0.00;
61804;PMS7003;47725;47.912;7.356;2023-07-31T11:41:04;0.00;0.00;
61804;PMS7003;47725;47.912;7.356;2023-07-31T11:45:05;0.00;0.00;
61804;PMS7003;47725;47.912;7.356;2023-07-31T11:49:04;2.99;1.99;
61804;PMS7003;47725;47.912;7.356;2023-07-31T11:53:06;2.99;1.99;
61804;PMS7003;47725;47.912;7.356;2023-07-31T11:57:05;1.99;1.00;
61804;PMS7003;47725;47.912;7.356;2023-07-31T12:01:04;1.99;1.00;
61804;PMS7003;47725;47.912;7.356;2023-07-31T12:05:05;1.99;1.00;
61804;PMS7003;47725;47.912;7.356;2023-07-31T12:09:05;1.00;1.00;
61804;PMS7003;47725;47.912;7.356;2023-07-31T12:13:05;1.00;1.00;
61804;PMS7003;47725;47.912;7.356;2023-07-31T12:17:05;0.00;0.00;
61804;PMS7003;47725;47.912;7.356;2023-07-31T12:21:05;0.00;0.00;
61804;PMS7003;47725;47.912;7.356;2023-07-31T12:25:05;0.00;0.00;
61804;PMS7003;47725;47.912;7.356;2023-07-31T12:29:06;1.00;1.00;
61804;PMS7003;47725;47.912;7.356;2023-07-31T12:33:12;1.00;1.00;
61804;PMS7003;47725;47.912;7.356;2023-07-31T12:37:05;1.99;1.99;
61804;PMS7003;47725;47.912;7.356;2023-07-31T12:41:04;1.99;1.99;
61804;PMS7003;47725;47.912;7.356;2023-07-31T12:45:05;1.99;1.99;
61804;PMS7003;47725;47.912;7.356;2023-07-31T12:49:04;1.00;1.00;
61804;PMS7003;47725;47.912;7.356;2023-07-31T12:53:05;1.00;1.00;
61804;PMS7003;47725;47.912;7.356;2023-07-31T12:57:05;0.00;0.00;
61804;PMS7003;47725;47.912;7.356;2023-07-31T13:01:04;0.00;0.00;
61804;PMS7003;47725;47.912;7.356;2023-07-31T13:05:05;0.00;0.00;
61804;PMS7003;47725;47.912;7.356;2023-07-31T13:09:04;0.00;0.00;
61804;PMS7003;47725;47.912;7.356;2023-07-31T13:13:04;0.00;0.00;
61804;PMS7003;47725;47.912;7.356;2023-07-31T13:17:05;1.99;1.99;
61804;PMS7003;47725;47.912;7.356;2023-07-31T13:21:04;1.99;1.99;
61804;PMS7003;47725;47.912;7.356;2023-07-31T13:25:05;1.99;1.99;
61804;PMS7003;47725;47.912;7.356;2023-07-31T13:29:04;2.99;1.00;
61804;PMS7003;47725;47.912;7.356;2023-07-31T13:33:04;2.99;1.00;
61804;PMS7003;47725;47.912;7.356;2023-07-31T13:37:05;1.00;1.00;
61804;PMS7003;47725;47.912;7.356;2023-07-31T13:41:04;1.00;1.00;
61804;PMS7003;47725;47.912;7.356;2023-07-31T13:45:05;1.00;1.00;
61804;PMS7003;47725;47.912;7.356;2023-07-31T13:49:04;0.00;0.00;
61804;PMS7003;47725;47.912;7.356;2023-07-31T13:53:04;0.00;0.00;
61804;PMS7003;47725;47.912;7.356;2023-07-31T13:57:05;2.00;0.00;
61804;PMS7003;47725;47.912;7.356;2023-07-31T14:01:04;2.00;0.00;
61804;PMS7003;47725;47.912;7.356;2023-07-31T14:05:05;2.00;0.00;
61804;PMS7003;47725;47.912;7.356;2023-07-31T14:09:04;2.00;2.00;
61804;PMS7003;47725;47.912;7.356;2023-07-31T14:13:04;2.00;2.00;
61804;PMS7003;47725;47.912;7.356;2023-07-31T14:17:05;0.00;0.00;
61804;PMS7003;47725;47.912;7.356;2023-07-31T14:21:04;0.00;0.00;
61804;PMS7003;47725;47.912;7.356;2023-07-31T14:25:05;0.00;0.00;
61804;PMS7003;47725;47.912;7.356;2023-07-31T14:29:04;1.00;1.00;
61804;PMS7003;47725;47.912;7.356;2023-07-31T14:33:04;1.00;1.00;
61804;PMS7003;47725;47.912;7.356;2023-07-31T14:37:05;2.00;2.00;
61804;PMS7003;47725;47.912;7.356;2023-07-31T14:41:04;2.00;2.00;
61804;PMS7003;47725;47.912;7.356;2023-07-31T14:45:05;2.00;2.00;
61804;PMS7003;47725;47.912;7.356;2023-07-31T14:49:04;2.00;1.00;
61804;PMS7003;47725;47.912;7.356;2023-07-31T14:53:04;2.00;1.00;
61804;PMS7003;47725;47.912;7.356;2023-07-31T14:57:05;0.00;0.00;
61804;PMS7003;47725;47.912;7.356;2023-07-31T15:01:04;0.00;0.00;
61804;PMS7003;47725;47.912;7.356;2023-07-31T15:05:05;0.00;0.00;
61804;PMS7003;47725;47.912;7.356;2023-07-31T15:09:04;1.00;0.00;
61804;PMS7003;47725;47.912;7.356;2023-07-31T15:13:04;1.00;0.00;
61804;PMS7003;47725;47.912;7.356;2023-07-31T15:17:04;1.00;1.00;
61804;PMS7003;47725;47.912;7.356;2023-07-31T15:21:04;1.00;1.00;
61804;PMS7003;47725;47.912;7.356;2023-07-31T15:25:05;1.00;1.00;
61804;PMS7003;47725;47.912;7.356;2023-07-31T15:29:05;1.00;1.00;
61804;PMS7003;47725;47.912;7.356;2023-07-31T15:33:04;1.00;1.00;
61804;PMS7003;47725;47.912;7.356;2023-07-31T15:37:04;1.00;1.00;
61804;PMS7003;47725;47.912;7.356;2023-07-31T15:41:04;1.00;1.00;
61804;PMS7003;47725;47.912;7.356;2023-07-31T15:45:05;1.00;1.00;
61804;PMS7003;47725;47.912;7.356;2023-07-31T15:49:04;1.00;1.00;
61804;PMS7003;47725;47.912;7.356;2023-07-31T15:53:04;1.00;1.00;
61804;PMS7003;47725;47.912;7.356;2023-07-31T15:57:05;1.99;0.00;
61804;PMS7003;47725;47.912;7.356;2023-07-31T16:01:04;1.99;0.00;
61804;PMS7003;47725;47.912;7.356;2023-07-31T16:05:05;1.99;0.00;
61804;PMS7003;47725;47.912;7.356;2023-07-31T16:09:04;1.00;1.00;
61804;PMS7003;47725;47.912;7.356;2023-07-31T16:13:04;1.00;1.00;
61804;PMS7003;47725;47.912;7.356;2023-07-31T16:17:04;1.99;1.00;
61804;PMS7003;47725;47.912;7.356;2023-07-31T16:21:04;1.99;1.00;
61804;PMS7003;47725;47.912;7.356;2023-07-31T16:25:05;1.99;1.00;
61804;PMS7003;47725;47.912;7.356;2023-07-31T16:29:04;1.99;1.99;
61804;PMS7003;47725;47.912;7.356;2023-07-31T16:33:04;1.99;1.99;
61804;PMS7003;47725;47.912;7.356;2023-07-31T16:37:04;0.00;0.00;
61804;PMS7003;47725;47.912;7.356;2023-07-31T16:41:05;0.00;0.00;
61804;PMS7003;47725;47.912;7.356;2023-07-31T16:45:04;0.00;0.00;
61804;PMS7003;47725;47.912;7.356;2023-07-31T16:49:04;1.00;1.00;
61804;PMS7003;47725;47.912;7.356;2023-07-31T16:53:04;1.00;1.00;
61804;PMS7003;47725;47.912;7.356;2023-07-31T16:57:04;1.99;1.99;
61804;PMS7003;47725;47.912;7.356;2023-07-31T17:01:04;1.99;1.99;
61804;PMS7003;47725;47.912;7.356;2023-07-31T17:05:05;1.99;1.99;
61804;PMS7003;47725;47.912;7.356;2023-07-31T17:09:04;1.00;1.00;
61804;PMS7003;47725;47.912;7.356;2023-07-31T17:13:04;1.00;1.00;
61804;PMS7003;47725;47.912;7.356;2023-07-31T17:17:06;1.00;1.00;
61804;PMS7003;47725;47.912;7.356;2023-07-31T17:21:04;1.00;1.00;
61804;PMS7003;47725;47.912;7.356;2023-07-31T17:25:05;1.00;1.00;
61804;PMS7003;47725;47.912;7.356;2023-07-31T17:29:04;1.00;1.00;
61804;PMS7003;47725;47.912;7.356;2023-07-31T17:33:04;1.00;1.00;
61804;PMS7003;47725;47.912;7.356;2023-07-31T17:37:04;1.99;1.99;
61804;PMS7003;47725;47.912;7.356;2023-07-31T17:41:04;1.99;1.99;
61804;PMS7003;47725;47.912;7.356;2023-07-31T17:45:04;1.99;1.99;
61804;PMS7003;47725;47.912;7.356;2023-07-31T17:49:04;3.98;1.00;
61804;PMS7003;47725;47.912;7.356;2023-07-31T17:53:04;3.98;1.00;
61804;PMS7003;47725;47.912;7.356;2023-07-31T17:57:04;0.00;0.00;
61804;PMS7003;47725;47.912;7.356;2023-07-31T18:01:04;0.00;0.00;
61804;PMS7003;47725;47.912;7.356;2023-07-31T18:05:05;0.00;0.00;
61804;PMS7003;47725;47.912;7.356;2023-07-31T18:09:04;1.00;1.00;
61804;PMS7003;47725;47.912;7.356;2023-07-31T18:13:04;1.00;1.00;
61804;PMS7003;47725;47.912;7.356;2023-07-31T18:17:04;1.99;1.00;
61804;PMS7003;47725;47.912;7.356;2023-07-31T18:21:04;1.99;1.00;
61804;PMS7003;47725;47.912;7.356;2023-07-31T18:25:04;1.99;1.00;
61804;PMS7003;47725;47.912;7.356;2023-07-31T18:29:04;1.00;1.00;
61804;PMS7003;47725;47.912;7.356;2023-07-31T18:33:04;1.00;1.00;
61804;PMS7003;47725;47.912;7.356;2023-07-31T18:37:04;0.00;0.00;
61804;PMS7003;47725;47.912;7.356;2023-07-31T18:41:05;0.00;0.00;
61804;PMS7003;47725;47.912;7.356;2023-07-31T18:45:05;0.00;0.00;
61804;PMS7003;47725;47.912;7.356;2023-07-31T18:49:04;0.00;0.00;
61804;PMS7003;47725;47.912;7.356;2023-07-31T18:53:10;0.00;0.00;
61804;PMS7003;47725;47.912;7.356;2023-07-31T18:57:04;1.99;1.00;
61804;PMS7003;47725;47.912;7.356;2023-07-31T19:01:04;1.99;1.00;
61804;PMS7003;47725;47.912;7.356;2023-07-31T19:05:04;1.99;1.00;
61804;PMS7003;47725;47.912;7.356;2023-07-31T19:09:04;0.00;0.00;
61804;PMS7003;47725;47.912;7.356;2023-07-31T19:13:04;0.00;0.00;
61804;PMS7003;47725;47.912;7.356;2023-07-31T19:17:05;0.99;0.99;
61804;PMS7003;47725;47.912;7.356;2023-07-31T19:21:04;0.99;0.99;
61804;PMS7003;47725;47.912;7.356;2023-07-31T19:25:04;0.99;0.99;
61804;PMS7003;47725;47.912;7.356;2023-07-31T19:29:04;0.99;0.99;
61804;PMS7003;47725;47.912;7.356;2023-07-31T19:33:04;0.99;0.99;
61804;PMS7003;47725;47.912;7.356;2023-07-31T19:37:04;1.99;1.99;
61804;PMS7003;47725;47.912;7.356;2023-07-31T19:41:04;1.99;1.99;
61804;PMS7003;47725;47.912;7.356;2023-07-31T19:45:04;1.99;1.99;
61804;PMS7003;47725;47.912;7.356;2023-07-31T19:49:04;1.99;0.99;
61804;PMS7003;47725;47.912;7.356;2023-07-31T19:53:04;1.99;0.99;
61804;PMS7003;47725;47.912;7.356;2023-07-31T19:57:04;1.99;1.99;
61804;PMS7003;47725;47.912;7.356;2023-07-31T20:01:04;1.99;1.99;
61804;PMS7003;47725;47.912;7.356;2023-07-31T20:05:05;1.99;1.99;
61804;PMS7003;47725;47.912;7.356;2023-07-31T20:09:04;0.00;0.00;
61804;PMS7003;47725;47.912;7.356;2023-07-31T20:13:04;0.00;0.00;
61804;PMS7003;47725;47.912;7.356;2023-07-31T20:17:04;0.99;0.99;
61804;PMS7003;47725;47.912;7.356;2023-07-31T20:21:04;0.99;0.99;
61804;PMS7003;47725;47.912;7.356;2023-07-31T20:25:04;0.99;0.99;
61804;PMS7003;47725;47.912;7.356;2023-07-31T20:29:04;0.99;0.99;
61804;PMS7003;47725;47.912;7.356;2023-07-31T20:33:04;0.99;0.99;
61804;PMS7003;47725;47.912;7.356;2023-07-31T20:37:04;0.00;0.00;
61804;PMS7003;47725;47.912;7.356;2023-07-31T20:41:04;0.00;0.00;
61804;PMS7003;47725;47.912;7.356;2023-07-31T20:45:04;0.00;0.00;
61804;PMS7003;47725;47.912;7.356;2023-07-31T20:49:04;2.97;0.99;
61804;PMS7003;47725;47.912;7.356;2023-07-31T20:53:04;2.97;0.99;
61804;PMS7003;47725;47.912;7.356;2023-07-31T20:57:04;3.97;1.98;
61804;PMS7003;47725;47.912;7.356;2023-07-31T21:01:04;3.97;1.98;
61804;PMS7003;47725;47.912;7.356;2023-07-31T21:05:04;3.97;1.98;
61804;PMS7003;47725;47.912;7.356;2023-07-31T21:09:04;0.99;0.99;
61804;PMS7003;47725;47.912;7.356;2023-07-31T21:13:04;0.99;0.99;
61804;PMS7003;47725;47.912;7.356;2023-07-31T21:17:04;2.97;2.97;
61804;PMS7003;47725;47.912;7.356;2023-07-31T21:21:04;2.97;2.97;
61804;PMS7003;47725;47.912;7.356;2023-07-31T21:25:04;2.97;2.97;
61804;PMS7003;47725;47.912;7.356;2023-07-31T21:29:04;4.95;2.97;
61804;PMS7003;47725;47.912;7.356;2023-07-31T21:33:04;4.95;2.97;
61804;PMS7003;47725;47.912;7.356;2023-07-31T21:37:04;3.97;1.98;
61804;PMS7003;47725;47.912;7.356;2023-07-31T21:41:04;3.97;1.98;
61804;PMS7003;47725;47.912;7.356;2023-07-31T21:45:04;3.97;1.98;
61804;PMS7003;47725;47.912;7.356;2023-07-31T21:49:04;2.98;1.99;
61804;PMS7003;47725;47.912;7.356;2023-07-31T21:53:04;2.98;1.99;
61804;PMS7003;47725;47.912;7.356;2023-07-31T21:57:04;0.99;0.99;
61804;PMS7003;47725;47.912;7.356;2023-07-31T22:01:04;0.99;0.99;
61804;PMS7003;47725;47.912;7.356;2023-07-31T22:05:04;0.99;0.99;
61804;PMS7003;47725;47.912;7.356;2023-07-31T22:09:04;1.99;1.99;
61804;PMS7003;47725;47.912;7.356;2023-07-31T22:13:04;1.99;1.99;
61804;PMS7003;47725;47.912;7.356;2023-07-31T22:17:04;2.98;2.98;
61804;PMS7003;47725;47.912;7.356;2023-07-31T22:21:05;2.98;2.98;
61804;PMS7003;47725;47.912;7.356;2023-07-31T22:25:04;2.98;2.98;
61804;PMS7003;47725;47.912;7.356;2023-07-31T22:29:04;1.98;1.98;
61804;PMS7003;47725;47.912;7.356;2023-07-31T22:33:04;1.98;1.98;
61804;PMS7003;47725;47.912;7.356;2023-07-31T22:37:04;0.99;0.99;
61804;PMS7003;47725;47.912;7.356;2023-07-31T22:41:04;0.99;0.99;
61804;PMS7003;47725;47.912;7.356;2023-07-31T22:45:04;0.99;0.99;
61804;PMS7003;47725;47.912;7.356;2023-07-31T22:49:04;3.95;1.98;
61804;PMS7003;47725;47.912;7.356;2023-07-31T22:53:04;3.95;1.98;
61804;PMS7003;47725;47.912;7.356;2023-07-31T22:57:04;3.95;3.95;
61804;PMS7003;47725;47.912;7.356;2023-07-31T23:01:05;3.95;3.95;
61804;PMS7003;47725;47.912;7.356;2023-07-31T23:05:04;3.95;3.95;
61804;PMS7003;47725;47.912;7.356;2023-07-31T23:09:04;2.96;1.97;
61804;PMS7003;47725;47.912;7.356;2023-07-31T23:13:04;2.96;1.97;
61804;PMS7003;47725;47.912;7.356;2023-07-31T23:17:04;3.95;2.96;
61804;PMS7003;47725;47.912;7.356;2023-07-31T23:21:04;3.95;2.96;
61804;PMS7003;47725;47.912;7.356;2023-07-31T23:25:04;3.95;2.96;
61804;PMS7003;47725;47.912;7.356;2023-07-31T23:29:04;1.97;1.97;
61804;PMS7003;47725;47.912;7.356;2023-07-31T23:33:04;1.97;1.97;
61804;PMS7003;47725;47.912;7.356;2023-07-31T23:37:04;3.95;1.97;
61804;PMS7003;47725;47.912;7.356;2023-07-31T23:41:04;3.95;1.97;
61804;PMS7003;47725;47.912;7.356;2023-07-31T23:45:05;3.95;1.97;
61804;PMS7003;47725;47.912;7.356;2023-07-31T23:49:04;1.98;1.98;
61804;PMS7003;47725;47.912;7.356;2023-07-31T23:53:04;1.98;1.98;
61804;PMS7003;47725;47.912;7.356;2023-07-31T23:57:04;3.95;3.95;
